sensor_id;sensor_type;location;lat;lon;timestamp;P1;durP1;ratioP1;P2;durP2;ratioP2
80494;SDS011;69819;48.798;11.770;2023-05-10T00:00:14;4.78;;;4.30;;
80494;SDS011;69819;48.798;11.770;2023-05-10T00:02:40;4.90;;;4.50;;
80494;SDS011;69819;48.798;11.770;2023-05-10T00:05:06;6.05;;;5.03;;
80494;SDS011;69819;48.798;11.770;2023-05-10T00:07:32;6.47;;;4.80;;
80494;SDS011;69819;48.798;11.770;2023-05-10T00:09:58;6.07;;;5.47;;
80494;SDS011;69819;48.798;11.770;2023-05-10T00:12:24;6.63;;;5.07;;
80494;SDS011;69819;48.798;11.770;2023-05-10T00:14:49;8.07;;;5.28;;
80494;SDS011;69819;48.798;11.770;2023-05-10T00:17:15;7.20;;;5.45;;
80494;SDS011;69819;48.798;11.770;2023-05-10T00:19:41;9.35;;;5.40;;
80494;SDS011;69819;48.798;11.770;2023-05-10T00:22:07;6.05;;;5.38;;
80494;SDS011;69819;48.798;11.770;2023-05-10T00:24:32;8.82;;;5.97;;
80494;SDS011;69819;48.798;11.770;2023-05-10T00:26:58;8.65;;;6.43;;
80494;SDS011;69819;48.798;11.770;2023-05-10T00:29:25;8.52;;;6.30;;
80494;SDS011;69819;48.798;11.770;2023-05-10T00:31:52;7.18;;;6.20;;
80494;SDS011;69819;48.798;11.770;2023-05-10T00:34:18;8.27;;;6.88;;
80494;SDS011;69819;48.798;11.770;2023-05-10T00:36:44;8.07;;;7.10;;
80494;SDS011;69819;48.798;11.770;2023-05-10T00:39:10;10.27;;;7.38;;
80494;SDS011;69819;48.798;11.770;2023-05-10T00:41:36;9.15;;;7.05;;
80494;SDS011;69819;48.798;11.770;2023-05-10T00:44:01;11.32;;;8.05;;
80494;SDS011;69819;48.798;11.770;2023-05-10T00:46:27;10.15;;;7.95;;
80494;SDS011;69819;48.798;11.770;2023-05-10T00:48:54;14.27;;;9.05;;
80494;SDS011;69819;48.798;11.770;2023-05-10T00:51:20;11.00;;;8.48;;
80494;SDS011;69819;48.798;11.770;2023-05-10T00:53:47;11.02;;;7.80;;
80494;SDS011;69819;48.798;11.770;2023-05-10T00:56:15;11.27;;;7.90;;
80494;SDS011;69819;48.798;11.770;2023-05-10T00:58:41;10.25;;;7.75;;
80494;SDS011;69819;48.798;11.770;2023-05-10T01:01:08;10.77;;;8.13;;
80494;SDS011;69819;48.798;11.770;2023-05-10T01:03:35;9.13;;;7.80;;
80494;SDS011;69819;48.798;11.770;2023-05-10T01:06:02;9.18;;;6.97;;
80494;SDS011;69819;48.798;11.770;2023-05-10T01:08:28;6.97;;;5.72;;
80494;SDS011;69819;48.798;11.770;2023-05-10T01:10:54;5.70;;;4.70;;
80494;SDS011;69819;48.798;11.770;2023-05-10T01:13:35;6.20;;;4.43;;
80494;SDS011;69819;48.798;11.770;2023-05-10T01:16:03;6.53;;;4.45;;
80494;SDS011;69819;48.798;11.770;2023-05-10T01:18:31;4.85;;;4.05;;
80494;SDS011;69819;48.798;11.770;2023-05-10T01:27:11;2.70;;;2.50;;
80494;SDS011;69819;48.798;11.770;2023-05-10T01:33:19;2.63;;;2.42;;
80494;SDS011;69819;48.798;11.770;2023-05-10T01:38:57;3.55;;;2.20;;
80494;SDS011;69819;48.798;11.770;2023-05-10T01:41:49;4.28;;;2.25;;
80494;SDS011;69819;48.798;11.770;2023-05-10T01:47:05;2.25;;;1.98;;
80494;SDS011;69819;48.798;11.770;2023-05-10T01:49:40;2.53;;;1.70;;
80494;SDS011;69819;48.798;11.770;2023-05-10T01:52:12;1.73;;;1.63;;
80494;SDS011;69819;48.798;11.770;2023-05-10T01:55:04;1.60;;;1.50;;
80494;SDS011;69819;48.798;11.770;2023-05-10T01:57:36;1.60;;;1.50;;
80494;SDS011;69819;48.798;11.770;2023-05-10T02:00:06;1.63;;;1.50;;
80494;SDS011;69819;48.798;11.770;2023-05-10T02:02:34;1.48;;;1.38;;
80494;SDS011;69819;48.798;11.770;2023-05-10T02:05:07;2.90;;;1.58;;
80494;SDS011;69819;48.798;11.770;2023-05-10T02:07:37;1.60;;;1.50;;
80494;SDS011;69819;48.798;11.770;2023-05-10T02:10:04;1.90;;;1.40;;
80494;SDS011;69819;48.798;11.770;2023-05-10T02:12:36;1.65;;;1.52;;
80494;SDS011;69819;48.798;11.770;2023-05-10T02:15:07;1.63;;;1.52;;
80494;SDS011;69819;48.798;11.770;2023-05-10T02:17:35;1.83;;;1.40;;
80494;SDS011;69819;48.798;11.770;2023-05-10T02:20:03;1.48;;;1.38;;
80494;SDS011;69819;48.798;11.770;2023-05-10T02:22:33;1.60;;;1.50;;
80494;SDS011;69819;48.798;11.770;2023-05-10T02:25:02;1.33;;;1.23;;
80494;SDS011;69819;48.798;11.770;2023-05-10T02:27:29;1.65;;;1.55;;
80494;SDS011;69819;48.798;11.770;2023-05-10T02:29:56;1.35;;;1.23;;
80494;SDS011;69819;48.798;11.770;2023-05-10T02:32:24;1.88;;;1.15;;
80494;SDS011;69819;48.798;11.770;2023-05-10T02:34:53;1.67;;;1.58;;
80494;SDS011;69819;48.798;11.770;2023-05-10T02:37:21;1.45;;;1.27;;
80494;SDS011;69819;48.798;11.770;2023-05-10T02:39:49;1.77;;;1.40;;
80494;SDS011;69819;48.798;11.770;2023-05-10T02:42:18;4.13;;;1.40;;
80494;SDS011;69819;48.798;11.770;2023-05-10T02:44:52;1.30;;;1.20;;
80494;SDS011;69819;48.798;11.770;2023-05-10T02:47:32;2.20;;;1.50;;
80494;SDS011;69819;48.798;11.770;2023-05-10T02:49:59;2.40;;;1.17;;
80494;SDS011;69819;48.798;11.770;2023-05-10T02:52:29;1.80;;;1.50;;
80494;SDS011;69819;48.798;11.770;2023-05-10T02:55:05;1.60;;;1.30;;
80494;SDS011;69819;48.798;11.770;2023-05-10T02:57:34;2.55;;;1.58;;
80494;SDS011;69819;48.798;11.770;2023-05-10T03:00:08;1.77;;;1.25;;
80494;SDS011;69819;48.798;11.770;2023-05-10T03:02:34;2.42;;;1.60;;
80494;SDS011;69819;48.798;11.770;2023-05-10T03:05:01;1.85;;;1.60;;
80494;SDS011;69819;48.798;11.770;2023-05-10T03:07:28;2.35;;;1.55;;
80494;SDS011;69819;48.798;11.770;2023-05-10T03:09:54;1.65;;;1.55;;
80494;SDS011;69819;48.798;11.770;2023-05-10T03:18:06;1.60;;;1.50;;
80494;SDS011;69819;48.798;11.770;2023-05-10T03:20:35;1.50;;;1.40;;
80494;SDS011;69819;48.798;11.770;2023-05-10T03:23:12;1.40;;;1.30;;
80494;SDS011;69819;48.798;11.770;2023-05-10T03:25:47;1.20;;;1.20;;
80494;SDS011;69819;48.798;11.770;2023-05-10T03:28:15;1.70;;;1.60;;
80494;SDS011;69819;48.798;11.770;2023-05-10T03:30:43;1.40;;;1.30;;
80494;SDS011;69819;48.798;11.770;2023-05-10T03:33:10;1.83;;;1.42;;
80494;SDS011;69819;48.798;11.770;2023-05-10T03:35:35;1.67;;;1.38;;
80494;SDS011;69819;48.798;11.770;2023-05-10T03:38:01;3.17;;;1.30;;
80494;SDS011;69819;48.798;11.770;2023-05-10T03:40:27;1.23;;;1.23;;
80494;SDS011;69819;48.798;11.770;2023-05-10T03:42:56;1.15;;;1.13;;
80494;SDS011;69819;48.798;11.770;2023-05-10T03:45:25;1.77;;;1.35;;
80494;SDS011;69819;48.798;11.770;2023-05-10T03:47:52;1.35;;;1.25;;
80494;SDS011;69819;48.798;11.770;2023-05-10T03:50:18;2.85;;;1.73;;
80494;SDS011;69819;48.798;11.770;2023-05-10T03:52:45;1.60;;;1.50;;
80494;SDS011;69819;48.798;11.770;2023-05-10T03:55:11;1.85;;;1.70;;
80494;SDS011;69819;48.798;11.770;2023-05-10T03:57:37;2.15;;;1.55;;
80494;SDS011;69819;48.798;11.770;2023-05-10T04:00:03;2.42;;;1.63;;
80494;SDS011;69819;48.798;11.770;2023-05-10T04:02:29;1.98;;;1.88;;
80494;SDS011;69819;48.798;11.770;2023-05-10T04:04:55;2.10;;;1.80;;
80494;SDS011;69819;48.798;11.770;2023-05-10T04:07:21;2.28;;;1.80;;
80494;SDS011;69819;48.798;11.770;2023-05-10T04:09:47;1.65;;;1.55;;
80494;SDS011;69819;48.798;11.770;2023-05-10T04:12:13;1.38;;;1.27;;
80494;SDS011;69819;48.798;11.770;2023-05-10T04:14:39;3.55;;;1.35;;
80494;SDS011;69819;48.798;11.770;2023-05-10T04:17:04;1.60;;;1.35;;
80494;SDS011;69819;48.798;11.770;2023-05-10T04:19:30;1.42;;;1.20;;
80494;SDS011;69819;48.798;11.770;2023-05-10T04:21:57;3.17;;;1.73;;
80494;SDS011;69819;48.798;11.770;2023-05-10T04:24:23;3.05;;;1.67;;
80494;SDS011;69819;48.798;11.770;2023-05-10T04:26:50;3.78;;;1.98;;
80494;SDS011;69819;48.798;11.770;2023-05-10T04:29:16;2.58;;;1.88;;
80494;SDS011;69819;48.798;11.770;2023-05-10T04:31:42;3.42;;;1.60;;
80494;SDS011;69819;48.798;11.770;2023-05-10T04:34:08;1.63;;;1.33;;
80494;SDS011;69819;48.798;11.770;2023-05-10T04:36:33;2.25;;;1.40;;
80494;SDS011;69819;48.798;11.770;2023-05-10T04:39:00;2.08;;;1.42;;
80494;SDS011;69819;48.798;11.770;2023-05-10T04:41:30;1.27;;;0.90;;
80494;SDS011;69819;48.798;11.770;2023-05-10T04:43:56;1.50;;;0.95;;
80494;SDS011;69819;48.798;11.770;2023-05-10T04:46:22;1.10;;;1.00;;
80494;SDS011;69819;48.798;11.770;2023-05-10T04:48:47;1.10;;;0.90;;
80494;SDS011;69819;48.798;11.770;2023-05-10T04:51:13;0.80;;;0.80;;
80494;SDS011;69819;48.798;11.770;2023-05-10T04:53:39;0.70;;;0.70;;
80494;SDS011;69819;48.798;11.770;2023-05-10T04:56:05;0.50;;;0.50;;
80494;SDS011;69819;48.798;11.770;2023-05-10T04:58:31;1.08;;;0.70;;
80494;SDS011;69819;48.798;11.770;2023-05-10T05:01:04;1.70;;;0.60;;
80494;SDS011;69819;48.798;11.770;2023-05-10T05:03:34;0.88;;;0.63;;
80494;SDS011;69819;48.798;11.770;2023-05-10T05:06:00;0.80;;;0.60;;
80494;SDS011;69819;48.798;11.770;2023-05-10T05:08:26;0.50;;;0.50;;
80494;SDS011;69819;48.798;11.770;2023-05-10T05:10:52;0.80;;;0.80;;
80494;SDS011;69819;48.798;11.770;2023-05-10T05:13:17;0.50;;;0.50;;
80494;SDS011;69819;48.798;11.770;2023-05-10T05:15:44;0.40;;;0.40;;
80494;SDS011;69819;48.798;11.770;2023-05-10T05:18:09;3.80;;;0.70;;
80494;SDS011;69819;48.798;11.770;2023-05-10T05:20:35;0.52;;;0.50;;
80494;SDS011;69819;48.798;11.770;2023-05-10T05:23:01;0.40;;;0.30;;
80494;SDS011;69819;48.798;11.770;2023-05-10T05:25:27;0.32;;;0.30;;
80494;SDS011;69819;48.798;11.770;2023-05-10T05:27:53;0.43;;;0.43;;
80494;SDS011;69819;48.798;11.770;2023-05-10T05:30:19;0.22;;;0.22;;
80494;SDS011;69819;48.798;11.770;2023-05-10T05:32:44;0.98;;;0.25;;
80494;SDS011;69819;48.798;11.770;2023-05-10T05:35:11;1.13;;;0.38;;
80494;SDS011;69819;48.798;11.770;2023-05-10T05:37:37;0.32;;;0.22;;
80494;SDS011;69819;48.798;11.770;2023-05-10T05:40:04;1.42;;;0.60;;
80494;SDS011;69819;48.798;11.770;2023-05-10T05:42:31;0.22;;;0.20;;
80494;SDS011;69819;48.798;11.770;2023-05-10T05:44:57;0.30;;;0.30;;
80494;SDS011;69819;48.798;11.770;2023-05-10T05:47:23;0.88;;;0.43;;
80494;SDS011;69819;48.798;11.770;2023-05-10T05:49:49;0.65;;;0.40;;
80494;SDS011;69819;48.798;11.770;2023-05-10T05:52:14;1.13;;;0.40;;
80494;SDS011;69819;48.798;11.770;2023-05-10T05:54:40;0.47;;;0.40;;
80494;SDS011;69819;48.798;11.770;2023-05-10T05:57:06;0.40;;;0.40;;
80494;SDS011;69819;48.798;11.770;2023-05-10T05:59:32;0.47;;;0.32;;
80494;SDS011;69819;48.798;11.770;2023-05-10T06:01:58;0.45;;;0.30;;
80494;SDS011;69819;48.798;11.770;2023-05-10T06:04:23;0.30;;;0.30;;
80494;SDS011;69819;48.798;11.770;2023-05-10T06:06:49;0.30;;;0.28;;
80494;SDS011;69819;48.798;11.770;2023-05-10T06:09:15;0.28;;;0.20;;
80494;SDS011;69819;48.798;11.770;2023-05-10T06:11:41;0.20;;;0.20;;
80494;SDS011;69819;48.798;11.770;2023-05-10T06:14:07;0.28;;;0.28;;
80494;SDS011;69819;48.798;11.770;2023-05-10T06:16:35;0.25;;;0.22;;
80494;SDS011;69819;48.798;11.770;2023-05-10T06:19:01;0.40;;;0.40;;
80494;SDS011;69819;48.798;11.770;2023-05-10T06:21:28;0.25;;;0.25;;
80494;SDS011;69819;48.798;11.770;2023-05-10T06:23:54;0.35;;;0.32;;
80494;SDS011;69819;48.798;11.770;2023-05-10T06:26:19;0.75;;;0.40;;
80494;SDS011;69819;48.798;11.770;2023-05-10T06:28:45;0.22;;;0.22;;
80494;SDS011;69819;48.798;11.770;2023-05-10T06:31:11;1.85;;;0.32;;
80494;SDS011;69819;48.798;11.770;2023-05-10T06:33:37;0.30;;;0.30;;
80494;SDS011;69819;48.798;11.770;2023-05-10T06:36:03;0.60;;;0.28;;
80494;SDS011;69819;48.798;11.770;2023-05-10T06:38:29;0.45;;;0.22;;
80494;SDS011;69819;48.798;11.770;2023-05-10T06:40:55;0.45;;;0.20;;
80494;SDS011;69819;48.798;11.770;2023-05-10T06:43:20;0.38;;;0.30;;
80494;SDS011;69819;48.798;11.770;2023-05-10T06:45:47;0.52;;;0.20;;
80494;SDS011;69819;48.798;11.770;2023-05-10T06:48:13;0.30;;;0.30;;
80494;SDS011;69819;48.798;11.770;2023-05-10T06:50:39;0.45;;;0.38;;
80494;SDS011;69819;48.798;11.770;2023-05-10T06:53:04;0.20;;;0.20;;
80494;SDS011;69819;48.798;11.770;2023-05-10T06:55:30;0.40;;;0.40;;
80494;SDS011;69819;48.798;11.770;2023-05-10T06:57:56;0.40;;;0.40;;
80494;SDS011;69819;48.798;11.770;2023-05-10T07:00:22;0.63;;;0.40;;
80494;SDS011;69819;48.798;11.770;2023-05-10T07:02:48;0.63;;;0.30;;
80494;SDS011;69819;48.798;11.770;2023-05-10T07:05:13;0.50;;;0.50;;
80494;SDS011;69819;48.798;11.770;2023-05-10T07:07:40;1.10;;;0.45;;
80494;SDS011;69819;48.798;11.770;2023-05-10T07:10:06;0.30;;;0.30;;
80494;SDS011;69819;48.798;11.770;2023-05-10T07:12:32;0.30;;;0.30;;
80494;SDS011;69819;48.798;11.770;2023-05-10T07:14:58;0.20;;;0.20;;
80494;SDS011;69819;48.798;11.770;2023-05-10T07:17:24;0.50;;;0.50;;
80494;SDS011;69819;48.798;11.770;2023-05-10T07:19:50;1.35;;;0.60;;
80494;SDS011;69819;48.798;11.770;2023-05-10T07:22:16;0.40;;;0.40;;
80494;SDS011;69819;48.798;11.770;2023-05-10T07:24:42;0.57;;;0.50;;
80494;SDS011;69819;48.798;11.770;2023-05-10T07:27:08;0.38;;;0.38;;
80494;SDS011;69819;48.798;11.770;2023-05-10T07:29:34;0.90;;;0.50;;
80494;SDS011;69819;48.798;11.770;2023-05-10T07:32:01;0.30;;;0.30;;
80494;SDS011;69819;48.798;11.770;2023-05-10T07:34:27;0.60;;;0.40;;
80494;SDS011;69819;48.798;11.770;2023-05-10T07:36:55;0.38;;;0.38;;
80494;SDS011;69819;48.798;11.770;2023-05-10T07:39:22;0.40;;;0.40;;
80494;SDS011;69819;48.798;11.770;2023-05-10T07:41:48;0.38;;;0.38;;
80494;SDS011;69819;48.798;11.770;2023-05-10T07:44:14;0.40;;;0.30;;
80494;SDS011;69819;48.798;11.770;2023-05-10T07:46:43;0.98;;;0.22;;
80494;SDS011;69819;48.798;11.770;2023-05-10T07:49:08;1.50;;;0.50;;
80494;SDS011;69819;48.798;11.770;2023-05-10T07:51:34;1.10;;;0.30;;
80494;SDS011;69819;48.798;11.770;2023-05-10T07:54:00;1.77;;;0.40;;
80494;SDS011;69819;48.798;11.770;2023-05-10T07:56:28;1.95;;;0.30;;
80494;SDS011;69819;48.798;11.770;2023-05-10T07:58:56;0.20;;;0.20;;
80494;SDS011;69819;48.798;11.770;2023-05-10T08:01:26;0.30;;;0.30;;
80494;SDS011;69819;48.798;11.770;2023-05-10T08:03:56;0.20;;;0.20;;
80494;SDS011;69819;48.798;11.770;2023-05-10T08:06:22;1.58;;;0.30;;
80494;SDS011;69819;48.798;11.770;2023-05-10T08:08:48;1.02;;;0.30;;
80494;SDS011;69819;48.798;11.770;2023-05-10T08:11:16;0.55;;;0.20;;
80494;SDS011;69819;48.798;11.770;2023-05-10T08:13:42;0.20;;;0.20;;
80494;SDS011;69819;48.798;11.770;2023-05-10T08:16:09;0.30;;;0.30;;
80494;SDS011;69819;48.798;11.770;2023-05-10T08:18:36;0.38;;;0.38;;
80494;SDS011;69819;48.798;11.770;2023-05-10T08:21:02;0.30;;;0.30;;
80494;SDS011;69819;48.798;11.770;2023-05-10T08:23:29;0.57;;;0.40;;
80494;SDS011;69819;48.798;11.770;2023-05-10T08:25:55;0.90;;;0.55;;
80494;SDS011;69819;48.798;11.770;2023-05-10T08:28:20;1.10;;;0.40;;
80494;SDS011;69819;48.798;11.770;2023-05-10T08:30:46;1.42;;;0.43;;
80494;SDS011;69819;48.798;11.770;2023-05-10T08:33:12;1.42;;;0.30;;
80494;SDS011;69819;48.798;11.770;2023-05-10T08:35:38;0.43;;;0.30;;
80494;SDS011;69819;48.798;11.770;2023-05-10T08:38:03;0.43;;;0.20;;
80494;SDS011;69819;48.798;11.770;2023-05-10T08:40:29;0.25;;;0.25;;
80494;SDS011;69819;48.798;11.770;2023-05-10T08:42:58;0.55;;;0.40;;
80494;SDS011;69819;48.798;11.770;2023-05-10T08:45:32;0.40;;;0.40;;
80494;SDS011;69819;48.798;11.770;2023-05-10T08:48:04;0.47;;;0.47;;
80494;SDS011;69819;48.798;11.770;2023-05-10T08:50:32;0.43;;;0.43;;
80494;SDS011;69819;48.798;11.770;2023-05-10T08:53:09;0.30;;;0.30;;
80494;SDS011;69819;48.798;11.770;2023-05-10T08:55:38;1.05;;;0.50;;
80494;SDS011;69819;48.798;11.770;2023-05-10T08:58:05;0.43;;;0.43;;
80494;SDS011;69819;48.798;11.770;2023-05-10T09:00:32;1.25;;;0.30;;
80494;SDS011;69819;48.798;11.770;2023-05-10T09:02:59;0.28;;;0.28;;
80494;SDS011;69819;48.798;11.770;2023-05-10T09:05:26;0.45;;;0.40;;
80494;SDS011;69819;48.798;11.770;2023-05-10T09:07:53;0.60;;;0.25;;
80494;SDS011;69819;48.798;11.770;2023-05-10T09:10:19;1.05;;;0.30;;
80494;SDS011;69819;48.798;11.770;2023-05-10T09:12:45;0.43;;;0.20;;
80494;SDS011;69819;48.798;11.770;2023-05-10T09:15:14;0.85;;;0.30;;
80494;SDS011;69819;48.798;11.770;2023-05-10T09:17:41;0.30;;;0.30;;
80494;SDS011;69819;48.798;11.770;2023-05-10T09:20:09;0.22;;;0.22;;
80494;SDS011;69819;48.798;11.770;2023-05-10T09:22:35;0.40;;;0.40;;
80494;SDS011;69819;48.798;11.770;2023-05-10T09:27:36;0.13;;;0.13;;
80494;SDS011;69819;48.798;11.770;2023-05-10T09:30:04;0.40;;;0.40;;
80494;SDS011;69819;48.798;11.770;2023-05-10T09:32:41;0.30;;;0.30;;
80494;SDS011;69819;48.798;11.770;2023-05-10T09:35:13;0.50;;;0.30;;
80494;SDS011;69819;48.798;11.770;2023-05-10T09:37:41;0.28;;;0.28;;
80494;SDS011;69819;48.798;11.770;2023-05-10T09:40:16;0.65;;;0.35;;
80494;SDS011;69819;48.798;11.770;2023-05-10T09:42:54;1.17;;;0.45;;
80494;SDS011;69819;48.798;11.770;2023-05-10T09:45:34;0.40;;;0.40;;
80494;SDS011;69819;48.798;11.770;2023-05-10T09:48:01;0.77;;;0.50;;
80494;SDS011;69819;48.798;11.770;2023-05-10T09:50:28;0.30;;;0.30;;
80494;SDS011;69819;48.798;11.770;2023-05-10T09:52:56;0.45;;;0.40;;
80494;SDS011;69819;48.798;11.770;2023-05-10T09:55:44;0.45;;;0.38;;
80494;SDS011;69819;48.798;11.770;2023-05-10T09:58:14;0.60;;;0.50;;
80494;SDS011;69819;48.798;11.770;2023-05-10T10:00:45;0.25;;;0.25;;
80494;SDS011;69819;48.798;11.770;2023-05-10T10:03:16;0.65;;;0.45;;
80494;SDS011;69819;48.798;11.770;2023-05-10T10:05:45;0.30;;;0.30;;
80494;SDS011;69819;48.798;11.770;2023-05-10T10:08:13;0.85;;;0.30;;
80494;SDS011;69819;48.798;11.770;2023-05-10T10:10:40;1.40;;;0.30;;
80494;SDS011;69819;48.798;11.770;2023-05-10T10:13:07;0.17;;;0.17;;
80494;SDS011;69819;48.798;11.770;2023-05-10T10:15:34;1.50;;;0.50;;
80494;SDS011;69819;48.798;11.770;2023-05-10T10:18:00;0.40;;;0.38;;
80494;SDS011;69819;48.798;11.770;2023-05-10T10:20:28;0.55;;;0.30;;
80494;SDS011;69819;48.798;11.770;2023-05-10T10:22:54;0.25;;;0.25;;
80494;SDS011;69819;48.798;11.770;2023-05-10T10:25:20;1.02;;;0.30;;
80494;SDS011;69819;48.798;11.770;2023-05-10T10:27:49;0.40;;;0.40;;
80494;SDS011;69819;48.798;11.770;2023-05-10T10:30:46;0.30;;;0.30;;
80494;SDS011;69819;48.798;11.770;2023-05-10T10:36:17;1.40;;;0.47;;
80494;SDS011;69819;48.798;11.770;2023-05-10T10:50:08;1.88;;;0.32;;
80494;SDS011;69819;48.798;11.770;2023-05-10T10:52:36;0.35;;;0.35;;
80494;SDS011;69819;48.798;11.770;2023-05-10T10:57:42;1.27;;;0.35;;
80494;SDS011;69819;48.798;11.770;2023-05-10T11:03:00;0.95;;;0.50;;
80494;SDS011;69819;48.798;11.770;2023-05-10T11:05:44;0.70;;;0.40;;
80494;SDS011;69819;48.798;11.770;2023-05-10T11:08:30;0.77;;;0.40;;
80494;SDS011;69819;48.798;11.770;2023-05-10T11:18:57;2.95;;;0.38;;
80494;SDS011;69819;48.798;11.770;2023-05-10T11:21:27;0.50;;;0.50;;
80494;SDS011;69819;48.798;11.770;2023-05-10T11:23:58;0.30;;;0.30;;
80494;SDS011;69819;48.798;11.770;2023-05-10T11:26:31;0.50;;;0.50;;
80494;SDS011;69819;48.798;11.770;2023-05-10T11:28:59;0.43;;;0.32;;
80494;SDS011;69819;48.798;11.770;2023-05-10T11:31:26;0.93;;;0.50;;
80494;SDS011;69819;48.798;11.770;2023-05-10T11:33:54;0.40;;;0.40;;
80494;SDS011;69819;48.798;11.770;2023-05-10T11:36:25;0.40;;;0.40;;
80494;SDS011;69819;48.798;11.770;2023-05-10T11:38:54;1.13;;;0.57;;
80494;SDS011;69819;48.798;11.770;2023-05-10T11:41:22;0.40;;;0.40;;
80494;SDS011;69819;48.798;11.770;2023-05-10T11:43:50;0.52;;;0.40;;
80494;SDS011;69819;48.798;11.770;2023-05-10T11:46:18;1.13;;;0.40;;
80494;SDS011;69819;48.798;11.770;2023-05-10T11:48:47;0.65;;;0.40;;
80494;SDS011;69819;48.798;11.770;2023-05-10T11:51:19;0.40;;;0.38;;
80494;SDS011;69819;48.798;11.770;2023-05-10T11:53:49;0.40;;;0.40;;
80494;SDS011;69819;48.798;11.770;2023-05-10T11:56:18;0.40;;;0.40;;
80494;SDS011;69819;48.798;11.770;2023-05-10T11:58:51;0.80;;;0.40;;
80494;SDS011;69819;48.798;11.770;2023-05-10T12:01:22;1.38;;;0.63;;
80494;SDS011;69819;48.798;11.770;2023-05-10T12:03:53;0.40;;;0.40;;
80494;SDS011;69819;48.798;11.770;2023-05-10T12:06:29;0.75;;;0.68;;
80494;SDS011;69819;48.798;11.770;2023-05-10T12:08:57;1.45;;;0.50;;
80494;SDS011;69819;48.798;11.770;2023-05-10T12:11:24;0.60;;;0.40;;
80494;SDS011;69819;48.798;11.770;2023-05-10T12:13:53;0.40;;;0.40;;
80494;SDS011;69819;48.798;11.770;2023-05-10T12:16:21;0.70;;;0.50;;
80494;SDS011;69819;48.798;11.770;2023-05-10T12:18:55;0.50;;;0.50;;
80494;SDS011;69819;48.798;11.770;2023-05-10T12:21:24;0.52;;;0.50;;
80494;SDS011;69819;48.798;11.770;2023-05-10T12:23:51;1.30;;;0.50;;
80494;SDS011;69819;48.798;11.770;2023-05-10T12:26:23;2.63;;;0.50;;
80494;SDS011;69819;48.798;11.770;2023-05-10T12:28:52;1.13;;;0.60;;
80494;SDS011;69819;48.798;11.770;2023-05-10T12:31:19;1.33;;;0.57;;
80494;SDS011;69819;48.798;11.770;2023-05-10T12:33:45;0.50;;;0.50;;
80494;SDS011;69819;48.798;11.770;2023-05-10T12:36:12;0.93;;;0.52;;
80494;SDS011;69819;48.798;11.770;2023-05-10T12:38:43;2.90;;;0.50;;
80494;SDS011;69819;48.798;11.770;2023-05-10T12:41:14;2.70;;;0.60;;
80494;SDS011;69819;48.798;11.770;2023-05-10T12:43:42;0.90;;;0.60;;
80494;SDS011;69819;48.798;11.770;2023-05-10T12:46:13;0.98;;;0.90;;
80494;SDS011;69819;48.798;11.770;2023-05-10T12:48:42;0.65;;;0.57;;
80494;SDS011;69819;48.798;11.770;2023-05-10T12:51:09;1.85;;;0.50;;
80494;SDS011;69819;48.798;11.770;2023-05-10T12:53:38;1.85;;;0.50;;
80494;SDS011;69819;48.798;11.770;2023-05-10T12:56:04;1.23;;;0.60;;
80494;SDS011;69819;48.798;11.770;2023-05-10T12:58:31;0.68;;;0.50;;
80494;SDS011;69819;48.798;11.770;2023-05-10T13:00:57;0.70;;;0.70;;
80494;SDS011;69819;48.798;11.770;2023-05-10T13:03:25;0.85;;;0.60;;
80494;SDS011;69819;48.798;11.770;2023-05-10T13:05:50;3.92;;;1.00;;
80494;SDS011;69819;48.798;11.770;2023-05-10T13:08:16;0.60;;;0.60;;
80494;SDS011;69819;48.798;11.770;2023-05-10T13:10:42;1.42;;;0.75;;
80494;SDS011;69819;48.798;11.770;2023-05-10T13:13:08;0.77;;;0.70;;
80494;SDS011;69819;48.798;11.770;2023-05-10T13:15:34;0.80;;;0.80;;
80494;SDS011;69819;48.798;11.770;2023-05-10T13:18:00;0.82;;;0.70;;
80494;SDS011;69819;48.798;11.770;2023-05-10T13:20:26;1.60;;;0.80;;
80494;SDS011;69819;48.798;11.770;2023-05-10T13:22:52;0.93;;;0.93;;
80494;SDS011;69819;48.798;11.770;2023-05-10T13:25:18;1.83;;;0.80;;
80494;SDS011;69819;48.798;11.770;2023-05-10T13:27:44;1.15;;;0.90;;
80494;SDS011;69819;48.798;11.770;2023-05-10T13:30:10;1.00;;;0.90;;
80494;SDS011;69819;48.798;11.770;2023-05-10T13:32:37;3.47;;;0.90;;
80494;SDS011;69819;48.798;11.770;2023-05-10T13:35:03;2.17;;;0.70;;
80494;SDS011;69819;48.798;11.770;2023-05-10T13:37:30;0.98;;;0.90;;
80494;SDS011;69819;48.798;11.770;2023-05-10T13:39:57;1.05;;;1.02;;
80494;SDS011;69819;48.798;11.770;2023-05-10T13:42:23;1.42;;;0.52;;
80494;SDS011;69819;48.798;11.770;2023-05-10T13:44:49;1.02;;;0.85;;
80494;SDS011;69819;48.798;11.770;2023-05-10T13:47:15;0.80;;;0.80;;
80494;SDS011;69819;48.798;11.770;2023-05-10T13:49:41;0.60;;;0.60;;
80494;SDS011;69819;48.798;11.770;2023-05-10T13:52:07;1.20;;;0.68;;
80494;SDS011;69819;48.798;11.770;2023-05-10T13:54:35;1.75;;;0.88;;
80494;SDS011;69819;48.798;11.770;2023-05-10T13:57:02;0.77;;;0.77;;
80494;SDS011;69819;48.798;11.770;2023-05-10T13:59:28;1.40;;;0.70;;
80494;SDS011;69819;48.798;11.770;2023-05-10T14:01:54;1.58;;;1.02;;
80494;SDS011;69819;48.798;11.770;2023-05-10T14:04:19;1.13;;;0.73;;
80494;SDS011;69819;48.798;11.770;2023-05-10T14:06:45;1.52;;;0.93;;
80494;SDS011;69819;48.798;11.770;2023-05-10T14:09:11;0.85;;;0.70;;
80494;SDS011;69819;48.798;11.770;2023-05-10T14:11:37;0.73;;;0.73;;
80494;SDS011;69819;48.798;11.770;2023-05-10T14:14:06;1.58;;;0.82;;
80494;SDS011;69819;48.798;11.770;2023-05-10T14:16:32;2.03;;;0.90;;
80494;SDS011;69819;48.798;11.770;2023-05-10T14:18:58;2.30;;;1.27;;
80494;SDS011;69819;48.798;11.770;2023-05-10T14:21:24;2.92;;;1.15;;
80494;SDS011;69819;48.798;11.770;2023-05-10T14:23:49;1.83;;;1.00;;
80494;SDS011;69819;48.798;11.770;2023-05-10T14:26:15;1.50;;;0.95;;
80494;SDS011;69819;48.798;11.770;2023-05-10T14:28:41;1.17;;;0.90;;
80494;SDS011;69819;48.798;11.770;2023-05-10T14:31:07;2.25;;;1.13;;
80494;SDS011;69819;48.798;11.770;2023-05-10T14:33:33;1.58;;;1.00;;
80494;SDS011;69819;48.798;11.770;2023-05-10T14:35:58;2.58;;;1.70;;
80494;SDS011;69819;48.798;11.770;2023-05-10T14:38:25;1.23;;;1.13;;
80494;SDS011;69819;48.798;11.770;2023-05-10T14:40:51;1.15;;;0.90;;
80494;SDS011;69819;48.798;11.770;2023-05-10T14:43:17;1.67;;;0.95;;
80494;SDS011;69819;48.798;11.770;2023-05-10T14:45:43;1.45;;;0.70;;
80494;SDS011;69819;48.798;11.770;2023-05-10T14:48:09;0.90;;;0.60;;
80494;SDS011;69819;48.798;11.770;2023-05-10T14:50:40;1.00;;;0.63;;
80494;SDS011;69819;48.798;11.770;2023-05-10T14:53:06;6.25;;;2.00;;
80494;SDS011;69819;48.798;11.770;2023-05-10T14:55:32;3.25;;;0.80;;
80494;SDS011;69819;48.798;11.770;2023-05-10T14:57:59;1.60;;;0.63;;
80494;SDS011;69819;48.798;11.770;2023-05-10T15:00:25;82.78;;;15.57;;
80494;SDS011;69819;48.798;11.770;2023-05-10T15:02:52;10.02;;;2.97;;
80494;SDS011;69819;48.798;11.770;2023-05-10T15:05:18;5.55;;;1.10;;
80494;SDS011;69819;48.798;11.770;2023-05-10T15:07:43;5.72;;;1.90;;
80494;SDS011;69819;48.798;11.770;2023-05-10T15:10:09;1.88;;;0.93;;
80494;SDS011;69819;48.798;11.770;2023-05-10T15:12:36;1.08;;;1.08;;
80494;SDS011;69819;48.798;11.770;2023-05-10T15:15:03;1.58;;;0.93;;
80494;SDS011;69819;48.798;11.770;2023-05-10T15:17:30;0.80;;;0.80;;
80494;SDS011;69819;48.798;11.770;2023-05-10T15:19:56;1.67;;;0.80;;
80494;SDS011;69819;48.798;11.770;2023-05-10T15:22:22;0.80;;;0.80;;
80494;SDS011;69819;48.798;11.770;2023-05-10T15:24:47;1.55;;;0.70;;
80494;SDS011;69819;48.798;11.770;2023-05-10T15:27:13;0.80;;;0.80;;